Aérodrome :
LOGIN :

S'inscrire | Disclaimer

   EN    FR    IT 

 










Légende :    VFR   VFR Marginal   IFR   IFR Intensif   IFR Très Intensif
Visi : 
Plafond : 
>= 8 km
>= 3000ft
5 à 8 km
1000 à 3000 ft
1500m à 5 km
500 à 1000 ft
800 à 1500m
200 à 500 ft
< 800m
< 200 ft
Symboles :   Orages  Brouillard  Fortes neiges  Fortes précipitations  Vent > 20 kt
SIGMETs :   Divers  Orages  Givrage  Turbulence  Onde Orograph.  Cendres Volcan.






- Altitude de l'aérodrome : 26 ft


ETNT - Wittmundhaven AB

DERNIER METAR :
  • 172220Z 25012G22KT 9999 BKN015 07/05 Q1009 WHT

METARs EXPIRÉS :
  • 172120Z 23011KT 9999 BKN015 07/05 Q1009 WHT
  • 172020Z 24013KT 9999 BKN020 07/04 Q1008 WHT
  • 171955Z 24012KT 9999 BKN020 07/04 Q1008 WHT FCST CANCEL

TAF TAF ETNT
Valide du 17 à 21h jusqu'au 18 à 06h UTC


172005Z 1721/1806 23015G25KT 9999 NSW FEW020 BKN040
PROB30 1721/1806 24020G30KT 4000 SHRA BKN010CB BY ETGL



MET'MAP, la Météo Aéronautique d'un coup d'oeil ! - Copyright ORBIFLY Décembre 2007 - Disclaimer

ORBIFLY MET'MAP TEAM :

Programmation & Développement : Alexandra Zaïnal
Sur une idée originale de : Baudouin d'Aumeries
Assistance à la programmation : Marc-Olivier Méhu
Soutien technique & logistique : Manuel Goepfert

Contact : metmap@orbifly.com




SOURCES & CREDITS :

   NOAA